sensor_id;sensor_type;location;lat;lon;timestamp;P1;durP1;ratioP1;P2;durP2;ratioP2
42598;SDS011;28225;42.714;23.860;2022-11-14T00:00:20;60.55;;;20.88;;
42598;SDS011;28225;42.714;23.860;2022-11-14T00:02:49;45.28;;;17.00;;
42598;SDS011;28225;42.714;23.860;2022-11-14T00:05:14;26.52;;;12.63;;
42598;SDS011;28225;42.714;23.860;2022-11-14T00:07:40;23.30;;;8.00;;
42598;SDS011;28225;42.714;23.860;2022-11-14T00:10:05;25.88;;;9.23;;
42598;SDS011;28225;42.714;23.860;2022-11-14T00:12:31;40.47;;;9.75;;
42598;SDS011;28225;42.714;23.860;2022-11-14T00:14:56;42.13;;;9.77;;
42598;SDS011;28225;42.714;23.860;2022-11-14T00:17:22;48.45;;;9.00;;
42598;SDS011;28225;42.714;23.860;2022-11-14T00:19:47;23.10;;;8.23;;
42598;SDS011;28225;42.714;23.860;2022-11-14T00:22:13;34.45;;;9.77;;
42598;SDS011;28225;42.714;23.860;2022-11-14T00:24:38;52.45;;;9.95;;
42598;SDS011;28225;42.714;23.860;2022-11-14T00:27:04;26.02;;;8.25;;
42598;SDS011;28225;42.714;23.860;2022-11-14T00:29:29;31.20;;;9.10;;
42598;SDS011;28225;42.714;23.860;2022-11-14T00:31:54;26.15;;;9.77;;
42598;SDS011;28225;42.714;23.860;2022-11-14T00:34:20;42.05;;;10.05;;
42598;SDS011;28225;42.714;23.860;2022-11-14T00:36:45;19.60;;;8.10;;
42598;SDS011;28225;42.714;23.860;2022-11-14T00:39:11;22.25;;;9.20;;
42598;SDS011;28225;42.714;23.860;2022-11-14T00:41:38;22.20;;;8.40;;
42598;SDS011;28225;42.714;23.860;2022-11-14T00:44:03;29.08;;;9.43;;
42598;SDS011;28225;42.714;23.860;2022-11-14T00:46:29;17.33;;;9.13;;
42598;SDS011;28225;42.714;23.860;2022-11-14T00:48:54;30.40;;;10.70;;
42598;SDS011;28225;42.714;23.860;2022-11-14T00:51:20;25.60;;;8.95;;
42598;SDS011;28225;42.714;23.860;2022-11-14T00:53:45;21.92;;;9.52;;
42598;SDS011;28225;42.714;23.860;2022-11-14T00:56:11;33.42;;;9.32;;
42598;SDS011;28225;42.714;23.860;2022-11-14T00:58:36;29.55;;;9.90;;
42598;SDS011;28225;42.714;23.860;2022-11-14T01:01:02;33.80;;;9.98;;
42598;SDS011;28225;42.714;23.860;2022-11-14T01:03:27;16.38;;;9.20;;
42598;SDS011;28225;42.714;23.860;2022-11-14T01:05:53;18.38;;;10.15;;
42598;SDS011;28225;42.714;23.860;2022-11-14T01:08:18;40.15;;;10.68;;
42598;SDS011;28225;42.714;23.860;2022-11-14T01:10:45;40.83;;;9.68;;
42598;SDS011;28225;42.714;23.860;2022-11-14T01:13:13;44.85;;;10.38;;
42598;SDS011;28225;42.714;23.860;2022-11-14T01:15:39;15.73;;;7.85;;
42598;SDS011;28225;42.714;23.860;2022-11-14T01:18:06;28.40;;;8.20;;
42598;SDS011;28225;42.714;23.860;2022-11-14T01:20:31;23.85;;;8.55;;
42598;SDS011;28225;42.714;23.860;2022-11-14T01:22:57;15.82;;;8.35;;
42598;SDS011;28225;42.714;23.860;2022-11-14T01:25:22;29.02;;;8.77;;
42598;SDS011;28225;42.714;23.860;2022-11-14T01:27:49;25.40;;;8.27;;
42598;SDS011;28225;42.714;23.860;2022-11-14T01:30:14;29.38;;;8.48;;
42598;SDS011;28225;42.714;23.860;2022-11-14T01:32:40;22.77;;;8.27;;
42598;SDS011;28225;42.714;23.860;2022-11-14T01:35:05;11.32;;;7.20;;
42598;SDS011;28225;42.714;23.860;2022-11-14T01:37:31;39.38;;;10.60;;
42598;SDS011;28225;42.714;23.860;2022-11-14T01:39:56;25.70;;;10.30;;
42598;SDS011;28225;42.714;23.860;2022-11-14T01:42:22;67.60;;;10.73;;
42598;SDS011;28225;42.714;23.860;2022-11-14T01:44:48;29.63;;;8.57;;
42598;SDS011;28225;42.714;23.860;2022-11-14T01:47:18;22.40;;;7.20;;
42598;SDS011;28225;42.714;23.860;2022-11-14T01:49:46;29.40;;;8.65;;
42598;SDS011;28225;42.714;23.860;2022-11-14T01:54:49;23.10;;;9.15;;
42598;SDS011;28225;42.714;23.860;2022-11-14T01:57:17;19.52;;;8.10;;
42598;SDS011;28225;42.714;23.860;2022-11-14T02:02:19;34.25;;;8.60;;
42598;SDS011;28225;42.714;23.860;2022-11-14T02:04:48;39.38;;;8.25;;
42598;SDS011;28225;42.714;23.860;2022-11-14T02:07:16;29.85;;;10.35;;
42598;SDS011;28225;42.714;23.860;2022-11-14T02:09:43;28.42;;;9.90;;
42598;SDS011;28225;42.714;23.860;2022-11-14T02:12:12;34.67;;;10.27;;
42598;SDS011;28225;42.714;23.860;2022-11-14T02:14:39;37.85;;;9.85;;
42598;SDS011;28225;42.714;23.860;2022-11-14T02:17:06;26.73;;;9.23;;
42598;SDS011;28225;42.714;23.860;2022-11-14T02:19:42;31.38;;;9.40;;
42598;SDS011;28225;42.714;23.860;2022-11-14T02:22:15;39.33;;;9.20;;
42598;SDS011;28225;42.714;23.860;2022-11-14T02:24:42;51.65;;;19.83;;
42598;SDS011;28225;42.714;23.860;2022-11-14T02:27:08;48.15;;;11.63;;
42598;SDS011;28225;42.714;23.860;2022-11-14T02:29:34;44.75;;;9.80;;
42598;SDS011;28225;42.714;23.860;2022-11-14T02:32:00;11.60;;;7.30;;
42598;SDS011;28225;42.714;23.860;2022-11-14T02:34:26;38.20;;;9.18;;
42598;SDS011;28225;42.714;23.860;2022-11-14T02:36:51;22.08;;;7.90;;
42598;SDS011;28225;42.714;23.860;2022-11-14T02:39:17;35.28;;;9.43;;
42598;SDS011;28225;42.714;23.860;2022-11-14T02:41:42;24.75;;;9.15;;
42598;SDS011;28225;42.714;23.860;2022-11-14T02:44:08;29.38;;;8.88;;
42598;SDS011;28225;42.714;23.860;2022-11-14T02:46:33;19.88;;;9.02;;
42598;SDS011;28225;42.714;23.860;2022-11-14T02:48:59;23.63;;;9.93;;
42598;SDS011;28225;42.714;23.860;2022-11-14T02:51:24;19.65;;;8.52;;
42598;SDS011;28225;42.714;23.860;2022-11-14T02:53:50;24.20;;;7.47;;
42598;SDS011;28225;42.714;23.860;2022-11-14T02:56:15;26.88;;;8.02;;
42598;SDS011;28225;42.714;23.860;2022-11-14T02:58:41;22.48;;;10.48;;
42598;SDS011;28225;42.714;23.860;2022-11-14T03:01:06;34.20;;;9.73;;
42598;SDS011;28225;42.714;23.860;2022-11-14T03:03:31;22.30;;;8.35;;
42598;SDS011;28225;42.714;23.860;2022-11-14T03:05:58;21.63;;;8.38;;
42598;SDS011;28225;42.714;23.860;2022-11-14T03:08:27;15.35;;;8.30;;
42598;SDS011;28225;42.714;23.860;2022-11-14T03:10:52;26.25;;;8.68;;
42598;SDS011;28225;42.714;23.860;2022-11-14T03:13:18;16.02;;;7.68;;
42598;SDS011;28225;42.714;23.860;2022-11-14T03:15:43;36.67;;;7.88;;
42598;SDS011;28225;42.714;23.860;2022-11-14T03:18:09;35.65;;;8.02;;
42598;SDS011;28225;42.714;23.860;2022-11-14T03:20:34;41.92;;;9.02;;
42598;SDS011;28225;42.714;23.860;2022-11-14T03:23:00;35.47;;;6.93;;
42598;SDS011;28225;42.714;23.860;2022-11-14T03:25:25;30.70;;;7.68;;
42598;SDS011;28225;42.714;23.860;2022-11-14T03:27:51;26.17;;;8.02;;
42598;SDS011;28225;42.714;23.860;2022-11-14T03:30:16;23.35;;;7.82;;
42598;SDS011;28225;42.714;23.860;2022-11-14T03:32:42;9.38;;;6.28;;
42598;SDS011;28225;42.714;23.860;2022-11-14T03:35:08;9.60;;;7.03;;
42598;SDS011;28225;42.714;23.860;2022-11-14T03:37:34;11.23;;;7.63;;
42598;SDS011;28225;42.714;23.860;2022-11-14T03:39:59;16.25;;;10.25;;
42598;SDS011;28225;42.714;23.860;2022-11-14T03:42:25;15.00;;;9.63;;
42598;SDS011;28225;42.714;23.860;2022-11-14T03:44:50;16.02;;;9.70;;
42598;SDS011;28225;42.714;23.860;2022-11-14T03:47:16;14.20;;;8.02;;
42598;SDS011;28225;42.714;23.860;2022-11-14T03:49:41;21.52;;;11.95;;
42598;SDS011;28225;42.714;23.860;2022-11-14T03:52:09;24.42;;;13.77;;
42598;SDS011;28225;42.714;23.860;2022-11-14T03:54:35;14.95;;;8.82;;
42598;SDS011;28225;42.714;23.860;2022-11-14T03:57:01;28.15;;;12.52;;
42598;SDS011;28225;42.714;23.860;2022-11-14T03:59:26;22.83;;;8.98;;
42598;SDS011;28225;42.714;23.860;2022-11-14T04:01:51;47.53;;;9.95;;
42598;SDS011;28225;42.714;23.860;2022-11-14T04:04:17;27.83;;;9.15;;
42598;SDS011;28225;42.714;23.860;2022-11-14T04:06:42;16.40;;;9.05;;
42598;SDS011;28225;42.714;23.860;2022-11-14T04:09:09;34.90;;;9.35;;
42598;SDS011;28225;42.714;23.860;2022-11-14T04:11:34;30.42;;;9.38;;
42598;SDS011;28225;42.714;23.860;2022-11-14T04:14:00;46.13;;;9.63;;
42598;SDS011;28225;42.714;23.860;2022-11-14T04:16:26;35.15;;;10.27;;
42598;SDS011;28225;42.714;23.860;2022-11-14T04:18:51;47.10;;;10.02;;
42598;SDS011;28225;42.714;23.860;2022-11-14T04:21:17;48.75;;;11.27;;
42598;SDS011;28225;42.714;23.860;2022-11-14T04:23:42;89.85;;;23.67;;
42598;SDS011;28225;42.714;23.860;2022-11-14T04:26:08;55.35;;;15.60;;
42598;SDS011;28225;42.714;23.860;2022-11-14T04:28:33;85.93;;;15.63;;
42598;SDS011;28225;42.714;23.860;2022-11-14T04:30:59;62.55;;;11.68;;
42598;SDS011;28225;42.714;23.860;2022-11-14T04:33:24;71.88;;;10.10;;
42598;SDS011;28225;42.714;23.860;2022-11-14T04:35:50;54.53;;;9.80;;
42598;SDS011;28225;42.714;23.860;2022-11-14T04:38:15;61.45;;;10.07;;
42598;SDS011;28225;42.714;23.860;2022-11-14T04:40:46;79.65;;;10.73;;
42598;SDS011;28225;42.714;23.860;2022-11-14T04:43:13;43.88;;;8.05;;
42598;SDS011;28225;42.714;23.860;2022-11-14T04:45:38;75.65;;;9.80;;
42598;SDS011;28225;42.714;23.860;2022-11-14T04:48:03;41.13;;;10.63;;
42598;SDS011;28225;42.714;23.860;2022-11-14T04:50:29;58.50;;;12.70;;
42598;SDS011;28225;42.714;23.860;2022-11-14T04:52:54;71.80;;;21.63;;
42598;SDS011;28225;42.714;23.860;2022-11-14T04:55:20;56.72;;;17.10;;
42598;SDS011;28225;42.714;23.860;2022-11-14T04:57:45;58.00;;;12.15;;
42598;SDS011;28225;42.714;23.860;2022-11-14T05:00:11;72.15;;;14.00;;
42598;SDS011;28225;42.714;23.860;2022-11-14T05:02:37;59.72;;;14.30;;
42598;SDS011;28225;42.714;23.860;2022-11-14T05:05:02;42.15;;;11.63;;
42598;SDS011;28225;42.714;23.860;2022-11-14T05:07:28;64.78;;;11.95;;
42598;SDS011;28225;42.714;23.860;2022-11-14T05:09:53;67.32;;;12.32;;
42598;SDS011;28225;42.714;23.860;2022-11-14T05:12:19;37.10;;;10.98;;
42598;SDS011;28225;42.714;23.860;2022-11-14T05:14:44;48.83;;;12.70;;
42598;SDS011;28225;42.714;23.860;2022-11-14T05:17:10;66.50;;;11.93;;
42598;SDS011;28225;42.714;23.860;2022-11-14T05:19:35;48.10;;;13.20;;
42598;SDS011;28225;42.714;23.860;2022-11-14T05:22:01;66.38;;;12.43;;
42598;SDS011;28225;42.714;23.860;2022-11-14T05:24:26;65.85;;;12.93;;
42598;SDS011;28225;42.714;23.860;2022-11-14T05:26:52;55.70;;;9.65;;
42598;SDS011;28225;42.714;23.860;2022-11-14T05:29:18;42.58;;;9.27;;
42598;SDS011;28225;42.714;23.860;2022-11-14T05:31:43;47.10;;;8.85;;
42598;SDS011;28225;42.714;23.860;2022-11-14T05:34:09;25.83;;;9.15;;
42598;SDS011;28225;42.714;23.860;2022-11-14T05:36:34;37.58;;;8.75;;
42598;SDS011;28225;42.714;23.860;2022-11-14T05:39:00;46.38;;;12.88;;
42598;SDS011;28225;42.714;23.860;2022-11-14T05:41:25;33.67;;;13.07;;
42598;SDS011;28225;42.714;23.860;2022-11-14T05:43:51;32.72;;;11.25;;
42598;SDS011;28225;42.714;23.860;2022-11-14T05:46:16;32.35;;;11.60;;
42598;SDS011;28225;42.714;23.860;2022-11-14T05:48:42;40.53;;;12.95;;
42598;SDS011;28225;42.714;23.860;2022-11-14T05:51:09;28.75;;;10.77;;
42598;SDS011;28225;42.714;23.860;2022-11-14T05:53:35;22.88;;;8.18;;
42598;SDS011;28225;42.714;23.860;2022-11-14T05:56:02;31.83;;;9.55;;
42598;SDS011;28225;42.714;23.860;2022-11-14T05:58:32;25.80;;;9.00;;
42598;SDS011;28225;42.714;23.860;2022-11-14T06:01:02;26.40;;;9.77;;
42598;SDS011;28225;42.714;23.860;2022-11-14T06:03:32;20.67;;;9.25;;
42598;SDS011;28225;42.714;23.860;2022-11-14T06:05:59;52.08;;;13.75;;
42598;SDS011;28225;42.714;23.860;2022-11-14T06:08:28;52.42;;;19.42;;
42598;SDS011;28225;42.714;23.860;2022-11-14T06:10:54;44.72;;;14.55;;
42598;SDS011;28225;42.714;23.860;2022-11-14T06:13:20;49.90;;;12.40;;
42598;SDS011;28225;42.714;23.860;2022-11-14T06:15:45;18.73;;;10.88;;
42598;SDS011;28225;42.714;23.860;2022-11-14T06:18:10;30.05;;;10.25;;
42598;SDS011;28225;42.714;23.860;2022-11-14T06:20:36;37.60;;;10.52;;
42598;SDS011;28225;42.714;23.860;2022-11-14T06:23:01;49.20;;;13.75;;
42598;SDS011;28225;42.714;23.860;2022-11-14T06:25:27;48.70;;;11.70;;
42598;SDS011;28225;42.714;23.860;2022-11-14T06:27:52;55.00;;;14.98;;
42598;SDS011;28225;42.714;23.860;2022-11-14T06:30:18;51.47;;;16.50;;
42598;SDS011;28225;42.714;23.860;2022-11-14T06:32:43;85.22;;;16.75;;
42598;SDS011;28225;42.714;23.860;2022-11-14T06:35:09;75.30;;;17.90;;
42598;SDS011;28225;42.714;23.860;2022-11-14T06:37:35;51.50;;;14.88;;
42598;SDS011;28225;42.714;23.860;2022-11-14T06:40:01;100.32;;;15.18;;
42598;SDS011;28225;42.714;23.860;2022-11-14T06:42:26;77.05;;;13.25;;
42598;SDS011;28225;42.714;23.860;2022-11-14T06:44:52;44.00;;;12.02;;
42598;SDS011;28225;42.714;23.860;2022-11-14T06:47:17;114.35;;;23.80;;
42598;SDS011;28225;42.714;23.860;2022-11-14T06:49:43;85.55;;;13.40;;
42598;SDS011;28225;42.714;23.860;2022-11-14T06:52:08;53.20;;;13.43;;
42598;SDS011;28225;42.714;23.860;2022-11-14T06:54:34;42.10;;;12.05;;
42598;SDS011;28225;42.714;23.860;2022-11-14T06:57:00;92.15;;;11.30;;
42598;SDS011;28225;42.714;23.860;2022-11-14T06:59:25;74.05;;;10.90;;
42598;SDS011;28225;42.714;23.860;2022-11-14T07:01:51;108.32;;;11.38;;
42598;SDS011;28225;42.714;23.860;2022-11-14T07:04:16;110.93;;;12.10;;
42598;SDS011;28225;42.714;23.860;2022-11-14T07:06:42;92.50;;;13.88;;
42598;SDS011;28225;42.714;23.860;2022-11-14T07:09:08;94.95;;;22.08;;
42598;SDS011;28225;42.714;23.860;2022-11-14T07:11:34;88.55;;;19.77;;
42598;SDS011;28225;42.714;23.860;2022-11-14T07:14:01;89.22;;;12.20;;
42598;SDS011;28225;42.714;23.860;2022-11-14T07:16:31;47.45;;;10.32;;
42598;SDS011;28225;42.714;23.860;2022-11-14T07:19:02;60.53;;;9.77;;
42598;SDS011;28225;42.714;23.860;2022-11-14T07:21:29;50.85;;;10.73;;
42598;SDS011;28225;42.714;23.860;2022-11-14T07:23:55;81.90;;;13.30;;
42598;SDS011;28225;42.714;23.860;2022-11-14T07:26:21;64.75;;;11.38;;
42598;SDS011;28225;42.714;23.860;2022-11-14T07:28:47;48.50;;;11.18;;
42598;SDS011;28225;42.714;23.860;2022-11-14T07:31:14;35.92;;;11.52;;
42598;SDS011;28225;42.714;23.860;2022-11-14T07:33:41;63.25;;;11.07;;
42598;SDS011;28225;42.714;23.860;2022-11-14T07:36:08;36.58;;;10.07;;
42598;SDS011;28225;42.714;23.860;2022-11-14T07:38:34;49.13;;;7.65;;
42598;SDS011;28225;42.714;23.860;2022-11-14T07:41:18;29.02;;;9.65;;
42598;SDS011;28225;42.714;23.860;2022-11-14T07:43:44;35.45;;;8.77;;
42598;SDS011;28225;42.714;23.860;2022-11-14T07:46:11;38.63;;;12.20;;
42598;SDS011;28225;42.714;23.860;2022-11-14T07:48:37;55.58;;;11.05;;
42598;SDS011;28225;42.714;23.860;2022-11-14T07:51:04;58.22;;;9.75;;
42598;SDS011;28225;42.714;23.860;2022-11-14T07:53:31;44.72;;;10.77;;
42598;SDS011;28225;42.714;23.860;2022-11-14T07:56:00;46.95;;;10.45;;
42598;SDS011;28225;42.714;23.860;2022-11-14T07:58:27;38.58;;;10.30;;
42598;SDS011;28225;42.714;23.860;2022-11-14T08:00:53;66.20;;;14.40;;
42598;SDS011;28225;42.714;23.860;2022-11-14T08:03:18;43.33;;;11.50;;
42598;SDS011;28225;42.714;23.860;2022-11-14T08:05:44;46.05;;;11.38;;
42598;SDS011;28225;42.714;23.860;2022-11-14T08:08:09;15.75;;;11.50;;
42598;SDS011;28225;42.714;23.860;2022-11-14T08:10:34;27.60;;;12.77;;
42598;SDS011;28225;42.714;23.860;2022-11-14T08:13:02;30.63;;;15.25;;
42598;SDS011;28225;42.714;23.860;2022-11-14T08:15:29;44.13;;;14.30;;
42598;SDS011;28225;42.714;23.860;2022-11-14T08:17:58;52.88;;;9.20;;
42598;SDS011;28225;42.714;23.860;2022-11-14T08:22:50;18.95;;;8.85;;
42598;SDS011;28225;42.714;23.860;2022-11-14T08:25:15;69.20;;;11.40;;
42598;SDS011;28225;42.714;23.860;2022-11-14T08:27:40;20.23;;;10.77;;
42598;SDS011;28225;42.714;23.860;2022-11-14T08:30:06;20.30;;;8.90;;
42598;SDS011;28225;42.714;23.860;2022-11-14T08:32:32;35.55;;;14.15;;
42598;SDS011;28225;42.714;23.860;2022-11-14T08:34:59;20.48;;;13.27;;
42598;SDS011;28225;42.714;23.860;2022-11-14T08:37:24;38.63;;;17.27;;
42598;SDS011;28225;42.714;23.860;2022-11-14T08:39:49;28.15;;;15.40;;
42598;SDS011;28225;42.714;23.860;2022-11-14T08:42:15;29.25;;;15.85;;
42598;SDS011;28225;42.714;23.860;2022-11-14T08:44:40;26.55;;;16.48;;
42598;SDS011;28225;42.714;23.860;2022-11-14T08:47:06;33.72;;;20.90;;
42598;SDS011;28225;42.714;23.860;2022-11-14T08:49:31;33.83;;;19.88;;
42598;SDS011;28225;42.714;23.860;2022-11-14T08:51:58;27.50;;;16.70;;
42598;SDS011;28225;42.714;23.860;2022-11-14T08:54:23;29.38;;;17.35;;
42598;SDS011;28225;42.714;23.860;2022-11-14T08:56:49;25.48;;;15.30;;
42598;SDS011;28225;42.714;23.860;2022-11-14T08:59:14;22.17;;;12.95;;
42598;SDS011;28225;42.714;23.860;2022-11-14T09:01:40;17.63;;;11.98;;
42598;SDS011;28225;42.714;23.860;2022-11-14T09:04:05;18.42;;;11.48;;
42598;SDS011;28225;42.714;23.860;2022-11-14T09:06:31;21.45;;;11.70;;
42598;SDS011;28225;42.714;23.860;2022-11-14T09:08:56;14.73;;;10.80;;
42598;SDS011;28225;42.714;23.860;2022-11-14T09:11:22;14.32;;;10.35;;
42598;SDS011;28225;42.714;23.860;2022-11-14T09:13:47;18.95;;;12.73;;
42598;SDS011;28225;42.714;23.860;2022-11-14T09:16:13;13.18;;;10.43;;
42598;SDS011;28225;42.714;23.860;2022-11-14T09:18:38;13.70;;;10.68;;
42598;SDS011;28225;42.714;23.860;2022-11-14T09:21:05;15.10;;;11.15;;
42598;SDS011;28225;42.714;23.860;2022-11-14T09:23:32;13.30;;;11.25;;
42598;SDS011;28225;42.714;23.860;2022-11-14T09:25:58;14.85;;;11.27;;
42598;SDS011;28225;42.714;23.860;2022-11-14T09:28:33;15.32;;;12.27;;
42598;SDS011;28225;42.714;23.860;2022-11-14T09:31:03;13.45;;;11.40;;
42598;SDS011;28225;42.714;23.860;2022-11-14T09:33:33;14.73;;;12.95;;
42598;SDS011;28225;42.714;23.860;2022-11-14T09:35:59;17.52;;;13.57;;
42598;SDS011;28225;42.714;23.860;2022-11-14T09:38:26;15.35;;;13.00;;
42598;SDS011;28225;42.714;23.860;2022-11-14T09:46:21;16.95;;;15.00;;
42598;SDS011;28225;42.714;23.860;2022-11-14T09:48:50;16.65;;;14.52;;
42598;SDS011;28225;42.714;23.860;2022-11-14T09:51:17;15.45;;;13.48;;
42598;SDS011;28225;42.714;23.860;2022-11-14T09:56:32;14.15;;;12.45;;
42598;SDS011;28225;42.714;23.860;2022-11-14T09:58:58;14.00;;;11.77;;
42598;SDS011;28225;42.714;23.860;2022-11-14T10:11:49;16.88;;;12.52;;
42598;SDS011;28225;42.714;23.860;2022-11-14T10:20:02;17.00;;;15.20;;
42598;SDS011;28225;42.714;23.860;2022-11-14T10:22:37;17.08;;;15.15;;
42598;SDS011;28225;42.714;23.860;2022-11-14T10:30:26;18.50;;;14.00;;
42598;SDS011;28225;42.714;23.860;2022-11-14T10:35:38;16.60;;;13.77;;
42598;SDS011;28225;42.714;23.860;2022-11-14T10:41:00;10.80;;;9.70;;
42598;SDS011;28225;42.714;23.860;2022-11-14T10:43:36;9.35;;;8.07;;
42598;SDS011;28225;42.714;23.860;2022-11-14T10:48:42;9.43;;;7.63;;
42598;SDS011;28225;42.714;23.860;2022-11-14T10:51:23;7.68;;;5.90;;
42598;SDS011;28225;42.714;23.860;2022-11-14T10:53:59;9.38;;;7.90;;
42598;SDS011;28225;42.714;23.860;2022-11-14T10:56:28;7.18;;;5.90;;
42598;SDS011;28225;42.714;23.860;2022-11-14T10:58:53;6.10;;;5.50;;
42598;SDS011;28225;42.714;23.860;2022-11-14T11:06:55;5.15;;;4.65;;
42598;SDS011;28225;42.714;23.860;2022-11-14T11:09:24;5.90;;;5.28;;
42598;SDS011;28225;42.714;23.860;2022-11-14T11:12:20;6.13;;;5.53;;
42598;SDS011;28225;42.714;23.860;2022-11-14T11:14:48;6.82;;;5.80;;
42598;SDS011;28225;42.714;23.860;2022-11-14T11:17:18;9.73;;;6.20;;
42598;SDS011;28225;42.714;23.860;2022-11-14T11:19:46;11.13;;;7.20;;
42598;SDS011;28225;42.714;23.860;2022-11-14T11:22:26;10.23;;;8.10;;
42598;SDS011;28225;42.714;23.860;2022-11-14T11:25:26;17.70;;;12.80;;
42598;SDS011;28225;42.714;23.860;2022-11-14T11:28:12;14.57;;;9.77;;
42598;SDS011;28225;42.714;23.860;2022-11-14T11:30:39;9.50;;;7.88;;
42598;SDS011;28225;42.714;23.860;2022-11-14T11:35:45;9.10;;;5.05;;
42598;SDS011;28225;42.714;23.860;2022-11-14T11:38:13;5.13;;;4.30;;
42598;SDS011;28225;42.714;23.860;2022-11-14T11:40:41;5.35;;;4.80;;
42598;SDS011;28225;42.714;23.860;2022-11-14T11:43:25;6.78;;;4.20;;
42598;SDS011;28225;42.714;23.860;2022-11-14T11:46:27;6.88;;;5.28;;
42598;SDS011;28225;42.714;23.860;2022-11-14T11:49:17;5.38;;;4.57;;
42598;SDS011;28225;42.714;23.860;2022-11-14T11:51:46;7.63;;;6.10;;
42598;SDS011;28225;42.714;23.860;2022-11-14T11:54:16;6.85;;;5.40;;
42598;SDS011;28225;42.714;23.860;2022-11-14T11:56:44;6.33;;;4.40;;
42598;SDS011;28225;42.714;23.860;2022-11-14T12:01:40;4.45;;;3.75;;
42598;SDS011;28225;42.714;23.860;2022-11-14T12:04:05;9.23;;;4.30;;
42598;SDS011;28225;42.714;23.860;2022-11-14T12:06:33;7.43;;;3.97;;
42598;SDS011;28225;42.714;23.860;2022-11-14T12:09:19;5.25;;;4.68;;
42598;SDS011;28225;42.714;23.860;2022-11-14T12:11:47;5.97;;;4.45;;
42598;SDS011;28225;42.714;23.860;2022-11-14T12:25:20;7.00;;;5.65;;
42598;SDS011;28225;42.714;23.860;2022-11-14T12:28:17;10.02;;;6.90;;
42598;SDS011;28225;42.714;23.860;2022-11-14T12:31:04;7.53;;;5.50;;
42598;SDS011;28225;42.714;23.860;2022-11-14T12:33:36;9.63;;;6.70;;
42598;SDS011;28225;42.714;23.860;2022-11-14T12:36:11;10.00;;;7.13;;
42598;SDS011;28225;42.714;23.860;2022-11-14T12:38:47;9.07;;;6.80;;
42598;SDS011;28225;42.714;23.860;2022-11-14T12:41:51;8.88;;;7.13;;
42598;SDS011;28225;42.714;23.860;2022-11-14T12:44:16;9.90;;;7.28;;
42598;SDS011;28225;42.714;23.860;2022-11-14T12:47:24;10.07;;;6.95;;
42598;SDS011;28225;42.714;23.860;2022-11-14T12:50:26;5.95;;;5.32;;
42598;SDS011;28225;42.714;23.860;2022-11-14T12:55:18;7.80;;;5.43;;
42598;SDS011;28225;42.714;23.860;2022-11-14T13:04:11;11.80;;;6.40;;
42598;SDS011;28225;42.714;23.860;2022-11-14T13:06:10;10.13;;;6.40;;
42598;SDS011;28225;42.714;23.860;2022-11-14T13:14:46;8.18;;;5.75;;
42598;SDS011;28225;42.714;23.860;2022-11-14T13:17:31;7.88;;;6.25;;
42598;SDS011;28225;42.714;23.860;2022-11-14T13:33:48;7.95;;;6.20;;
42598;SDS011;28225;42.714;23.860;2022-11-14T13:41:57;13.32;;;7.32;;
42598;SDS011;28225;42.714;23.860;2022-11-14T13:47:12;11.75;;;7.93;;
42598;SDS011;28225;42.714;23.860;2022-11-14T13:52:27;14.02;;;7.85;;
42598;SDS011;28225;42.714;23.860;2022-11-14T13:54:54;8.80;;;7.30;;
42598;SDS011;28225;42.714;23.860;2022-11-14T13:58:03;8.88;;;7.35;;
42598;SDS011;28225;42.714;23.860;2022-11-14T14:00:14;10.80;;;6.97;;
42598;SDS011;28225;42.714;23.860;2022-11-14T14:10:26;9.85;;;7.28;;
42598;SDS011;28225;42.714;23.860;2022-11-14T14:16:03;9.25;;;7.22;;
42598;SDS011;28225;42.714;23.860;2022-11-14T14:32:14;11.25;;;7.63;;
42598;SDS011;28225;42.714;23.860;2022-11-14T14:34:40;12.50;;;8.30;;
42598;SDS011;28225;42.714;23.860;2022-11-14T14:37:16;11.35;;;8.55;;
42598;SDS011;28225;42.714;23.860;2022-11-14T14:42:22;10.13;;;6.80;;
42598;SDS011;28225;42.714;23.860;2022-11-14T14:44:48;12.50;;;9.50;;
42598;SDS011;28225;42.714;23.860;2022-11-14T14:47:26;14.07;;;9.48;;
42598;SDS011;28225;42.714;23.860;2022-11-14T14:50:03;12.27;;;8.95;;
42598;SDS011;28225;42.714;23.860;2022-11-14T14:52:32;12.77;;;9.30;;
42598;SDS011;28225;42.714;23.860;2022-11-14T14:55:01;12.85;;;8.82;;
42598;SDS011;28225;42.714;23.860;2022-11-14T14:57:28;12.43;;;8.02;;
42598;SDS011;28225;42.714;23.860;2022-11-14T15:02:56;11.45;;;7.90;;
42598;SDS011;28225;42.714;23.860;2022-11-14T15:05:22;11.38;;;8.30;;
42598;SDS011;28225;42.714;23.860;2022-11-14T15:07:52;12.50;;;8.13;;
42598;SDS011;28225;42.714;23.860;2022-11-14T15:10:24;11.00;;;7.13;;
42598;SDS011;28225;42.714;23.860;2022-11-14T15:12:53;12.50;;;9.25;;
42598;SDS011;28225;42.714;23.860;2022-11-14T15:15:19;12.95;;;8.68;;
42598;SDS011;28225;42.714;23.860;2022-11-14T15:17:47;10.50;;;7.80;;
42598;SDS011;28225;42.714;23.860;2022-11-14T15:20:19;13.43;;;8.95;;
42598;SDS011;28225;42.714;23.860;2022-11-14T15:23:03;20.30;;;10.05;;
42598;SDS011;28225;42.714;23.860;2022-11-14T15:25:34;13.45;;;9.57;;
42598;SDS011;28225;42.714;23.860;2022-11-14T15:28:00;14.00;;;9.60;;
42598;SDS011;28225;42.714;23.860;2022-11-14T15:30:33;15.48;;;8.57;;
42598;SDS011;28225;42.714;23.860;2022-11-14T15:33:00;14.20;;;9.10;;
42598;SDS011;28225;42.714;23.860;2022-11-14T15:35:28;11.32;;;8.68;;
42598;SDS011;28225;42.714;23.860;2022-11-14T15:38:05;11.88;;;8.25;;
42598;SDS011;28225;42.714;23.860;2022-11-14T15:40:38;12.00;;;9.05;;
42598;SDS011;28225;42.714;23.860;2022-11-14T15:54:21;12.35;;;8.88;;
42598;SDS011;28225;42.714;23.860;2022-11-14T15:56:46;15.82;;;9.15;;
42598;SDS011;28225;42.714;23.860;2022-11-14T15:59:12;13.68;;;9.52;;
42598;SDS011;28225;42.714;23.860;2022-11-14T16:01:37;22.08;;;9.50;;
42598;SDS011;28225;42.714;23.860;2022-11-14T16:04:03;17.25;;;9.82;;
42598;SDS011;28225;42.714;23.860;2022-11-14T16:06:29;16.35;;;9.55;;
42598;SDS011;28225;42.714;23.860;2022-11-14T16:08:56;12.05;;;7.90;;
42598;SDS011;28225;42.714;23.860;2022-11-14T16:11:21;12.77;;;8.65;;
42598;SDS011;28225;42.714;23.860;2022-11-14T16:13:47;12.77;;;8.43;;
42598;SDS011;28225;42.714;23.860;2022-11-14T16:16:12;16.23;;;9.63;;
42598;SDS011;28225;42.714;23.860;2022-11-14T16:18:38;14.60;;;10.13;;
42598;SDS011;28225;42.714;23.860;2022-11-14T16:21:03;24.13;;;13.80;;
42598;SDS011;28225;42.714;23.860;2022-11-14T16:23:29;29.85;;;18.13;;
42598;SDS011;28225;42.714;23.860;2022-11-14T16:25:54;21.63;;;12.90;;
42598;SDS011;28225;42.714;23.860;2022-11-14T16:28:23;18.33;;;11.40;;
42598;SDS011;28225;42.714;23.860;2022-11-14T16:30:48;22.35;;;12.52;;
42598;SDS011;28225;42.714;23.860;2022-11-14T16:33:14;23.20;;;15.05;;
42598;SDS011;28225;42.714;23.860;2022-11-14T16:35:39;26.48;;;16.77;;
42598;SDS011;28225;42.714;23.860;2022-11-14T16:38:04;20.00;;;12.75;;
42598;SDS011;28225;42.714;23.860;2022-11-14T16:40:30;26.15;;;13.18;;
42598;SDS011;28225;42.714;23.860;2022-11-14T16:42:56;60.30;;;31.40;;
42598;SDS011;28225;42.714;23.860;2022-11-14T16:45:23;48.75;;;26.70;;
42598;SDS011;28225;42.714;23.860;2022-11-14T16:47:50;23.90;;;16.50;;